createdAt,value
2018-12-01T00:00:24.934Z,7.50
2018-12-01T00:02:53.404Z,7.40
2018-12-01T00:05:21.815Z,7.40
2018-12-01T00:07:50.524Z,7.40
2018-12-01T00:10:19.230Z,7.30
2018-12-01T00:12:47.614Z,7.30
2018-12-01T00:15:18.401Z,7.30
2018-12-01T00:17:47.086Z,7.30
2018-12-01T00:20:19.463Z,7.30
2018-12-01T00:22:48.119Z,7.30
2018-12-01T00:25:16.492Z,7.30
2018-12-01T00:27:44.884Z,7.30
2018-12-01T00:30:19.171Z,7.30
2018-12-01T00:32:49.437Z,7.40
2018-12-01T00:35:17.830Z,7.30
2018-12-01T00:37:46.232Z,7.30
2018-12-01T00:40:16.596Z,7.30
2018-12-01T00:42:44.999Z,7.40
2018-12-01T00:45:15.536Z,7.30
2018-12-01T00:47:45.095Z,7.40
2018-12-01T00:50:15.369Z,7.40
2018-12-01T00:52:43.818Z,7.40
2018-12-01T00:55:14.476Z,7.50
2018-12-01T00:57:42.901Z,7.60
2018-12-01T01:00:13.225Z,7.70
2018-12-01T01:02:41.916Z,7.70
2018-12-01T01:05:10.593Z,7.80
2018-12-01T01:07:38.982Z,7.80
2018-12-01T01:10:09.978Z,7.90
2018-12-01T01:12:38.339Z,7.90
2018-12-01T01:15:07.860Z,7.90
2018-12-01T01:17:37.114Z,7.90
2018-12-01T01:20:09.430Z,8.00
2018-12-01T01:22:37.847Z,8.00
2018-12-01T01:25:07.386Z,8.00
2018-12-01T01:27:35.752Z,8.00
2018-12-01T01:30:08.236Z,8.00
2018-12-01T01:32:37.172Z,8.00
2018-12-01T01:35:05.856Z,8.00
2018-12-01T01:37:34.576Z,8.00
2018-12-01T01:40:03.273Z,8.00
2018-12-01T01:42:31.660Z,8.00
2018-12-01T01:45:00.054Z,8.00
2018-12-01T01:47:28.419Z,8.00
2018-12-01T01:49:56.783Z,7.90
2018-12-01T01:52:25.179Z,7.90
2018-12-01T01:54:54.130Z,7.90
2018-12-01T01:57:22.591Z,7.80
2018-12-01T01:59:51.531Z,7.80
2018-12-01T02:02:19.921Z,7.80
2018-12-01T02:04:48.289Z,7.80
2018-12-01T02:07:16.719Z,7.80
2018-12-01T02:09:45.395Z,7.80
2018-12-01T02:12:14.313Z,7.80
2018-12-01T02:14:42.695Z,7.80
2018-12-01T02:17:11.103Z,7.80
2018-12-01T02:19:39.465Z,7.80
2018-12-01T02:22:07.903Z,7.80
2018-12-01T02:24:36.260Z,7.70
2018-12-01T02:27:04.633Z,7.70
2018-12-01T02:29:33.033Z,7.70
2018-12-01T02:32:01.552Z,7.60
2018-12-01T02:34:29.829Z,7.60
2018-12-01T02:36:58.229Z,7.50
2018-12-01T02:39:26.599Z,7.50
2018-12-01T02:41:56.117Z,7.40
2018-12-01T02:46:42.351Z,7.40
2018-12-01T02:49:11.132Z,7.30
2018-12-01T02:51:39.490Z,7.20
2018-12-01T02:54:07.947Z,7.20
2018-12-01T02:56:36.310Z,7.20
2018-12-01T02:59:04.700Z,7.20
2018-12-01T03:01:33.121Z,7.20
2018-12-01T03:04:01.739Z,7.30
2018-12-01T03:06:30.389Z,7.30
2018-12-01T03:08:58.811Z,7.30
2018-12-01T03:11:27.179Z,7.30
2018-12-01T03:13:55.549Z,7.40
2018-12-01T03:16:24.559Z,7.40
2018-12-01T03:18:53.874Z,7.40
2018-12-01T03:21:22.546Z,7.40
2018-12-01T03:23:50.943Z,7.40
2018-12-01T03:26:19.589Z,7.40
2018-12-01T03:28:47.961Z,7.40
2018-12-01T03:31:16.350Z,7.40
2018-12-01T03:33:44.740Z,7.40
2018-12-01T03:36:13.144Z,7.40
2018-12-01T03:38:41.561Z,7.30
2018-12-01T03:41:10.215Z,7.30
2018-12-01T03:43:38.617Z,7.30
2018-12-01T03:46:07.203Z,7.20
2018-12-01T03:48:35.629Z,7.20
2018-12-01T03:51:04.020Z,7.20
2018-12-01T03:53:32.411Z,7.20
2018-12-01T03:56:00.794Z,7.20
2018-12-01T03:58:29.152Z,7.20
2018-12-01T04:00:57.582Z,7.20
2018-12-01T04:03:26.241Z,7.20
2018-12-01T04:05:54.880Z,7.20
2018-12-01T04:08:23.279Z,7.20
2018-12-01T04:10:52.300Z,7.10
2018-12-01T04:13:20.661Z,7.10
2018-12-01T04:15:49.042Z,7.10
2018-12-01T04:18:17.990Z,7.10
2018-12-01T04:20:46.451Z,7.00
2018-12-01T04:23:14.831Z,7.00
2018-12-01T04:25:43.214Z,7.00
2018-12-01T04:28:12.182Z,7.10
2018-12-01T04:30:40.554Z,7.00
2018-12-01T04:33:08.951Z,7.00
2018-12-01T04:35:37.345Z,7.00
2018-12-01T04:38:06.332Z,7.00
2018-12-01T04:40:34.719Z,7.00
2018-12-01T04:43:03.108Z,7.00
2018-12-01T04:45:31.502Z,7.00
2018-12-01T04:47:59.884Z,7.00
2018-12-01T04:50:28.252Z,7.00
2018-12-01T04:52:56.636Z,7.00
2018-12-01T04:55:25.003Z,7.00
2018-12-01T04:57:53.443Z,7.00
2018-12-01T05:00:22.160Z,7.00
2018-12-01T05:02:50.523Z,7.00
2018-12-01T05:05:20.949Z,7.00
2018-12-01T05:07:49.674Z,7.00
2018-12-01T05:10:19.214Z,7.00
2018-12-01T05:12:47.895Z,7.10
2018-12-01T05:15:17.136Z,7.00
2018-12-01T05:17:45.891Z,7.10
2018-12-01T05:20:20.431Z,7.10
2018-12-01T05:22:49.205Z,7.10
2018-12-01T05:25:17.572Z,7.10
2018-12-01T05:27:46.138Z,7.10
2018-12-01T05:30:14.566Z,7.10
2018-12-01T05:32:43.231Z,7.10
2018-12-01T05:35:20.241Z,7.10
2018-12-01T05:37:49.237Z,7.20
2018-12-01T05:40:17.638Z,7.20
2018-12-01T05:42:46.291Z,7.20
2018-12-01T05:45:15.852Z,7.10
2018-12-01T05:47:44.216Z,7.10
2018-12-01T05:50:13.725Z,7.10
2018-12-01T05:52:42.108Z,7.10
2018-12-01T05:55:11.645Z,7.10
2018-12-01T05:57:40.049Z,7.10
2018-12-01T06:00:12.600Z,7.10
2018-12-01T06:02:41.049Z,7.10
2018-12-01T06:05:10.722Z,7.10
2018-12-01T06:07:39.236Z,7.10
2018-12-01T06:10:17.654Z,7.10
2018-12-01T06:12:46.568Z,7.10
2018-12-01T06:15:15.971Z,7.10
2018-12-01T06:17:44.540Z,7.10
2018-12-01T06:20:14.721Z,7.10
2018-12-01T06:22:43.081Z,7.10
2018-12-01T06:25:13.932Z,7.00
2018-12-01T06:27:42.637Z,7.00
2018-12-01T06:30:14.099Z,7.00
2018-12-01T06:32:42.760Z,6.90
2018-12-01T06:35:11.170Z,6.90
2018-12-01T06:37:39.835Z,6.90
2018-12-01T06:40:12.174Z,6.90
2018-12-01T06:42:40.472Z,7.00
2018-12-01T06:45:10.206Z,6.90
2018-12-01T06:47:39.102Z,7.00
2018-12-01T06:50:22.964Z,7.00
2018-12-01T06:52:53.048Z,7.00
2018-12-01T06:55:22.705Z,7.00
2018-12-01T06:57:51.098Z,7.00
2018-12-01T07:00:21.703Z,7.00
2018-12-01T07:02:50.328Z,7.00
2018-12-01T07:05:18.959Z,7.00
2018-12-01T07:07:47.361Z,7.00
2018-12-01T07:10:16.961Z,7.00
2018-12-01T07:12:47.645Z,7.00
2018-12-01T07:15:20.844Z,7.00
2018-12-01T07:17:49.565Z,7.00
2018-12-01T07:20:18.445Z,6.90
2018-12-01T07:22:46.822Z,6.90
2018-12-01T07:25:15.552Z,6.90
2018-12-01T07:27:43.938Z,6.90
2018-12-01T07:30:13.566Z,6.90
2018-12-01T07:32:42.603Z,6.80
2018-12-01T07:35:11.671Z,6.80
2018-12-01T07:37:40.262Z,6.80
2018-12-01T07:40:13.324Z,6.80
2018-12-01T07:42:41.713Z,6.80
2018-12-01T07:45:14.197Z,6.90
2018-12-01T07:47:42.588Z,6.80
2018-12-01T07:50:18.522Z,6.80
2018-12-01T07:52:49.384Z,6.90
2018-12-01T07:55:17.751Z,6.80
2018-12-01T07:57:46.191Z,6.80
2018-12-01T08:00:15.820Z,6.90
2018-12-01T08:02:45.873Z,6.90
2018-12-01T08:05:14.345Z,6.90
2018-12-01T08:07:42.972Z,6.90
2018-12-01T08:10:12.487Z,7.00
2018-12-01T08:12:40.911Z,7.00
2018-12-01T08:15:14.387Z,7.00
2018-12-01T08:17:42.818Z,7.00
2018-12-01T08:20:13.259Z,7.00
2018-12-01T08:22:41.832Z,7.00
2018-12-01T08:25:12.911Z,7.10
2018-12-01T08:27:41.297Z,7.10
2018-12-01T08:30:15.583Z,7.10
2018-12-01T08:32:44.236Z,7.10
2018-12-01T08:35:12.648Z,7.20
2018-12-01T08:37:41.038Z,7.20
2018-12-01T08:40:10.934Z,7.20
2018-12-01T08:42:39.349Z,7.30
2018-12-01T08:45:10.395Z,7.20
2018-12-01T08:47:39.462Z,7.30
2018-12-01T08:50:13.710Z,7.30
2018-12-01T08:52:42.584Z,7.30
2018-12-01T08:55:12.870Z,7.30
2018-12-01T08:57:41.327Z,7.40
2018-12-01T09:00:17.909Z,7.50
2018-12-01T09:02:47.891Z,7.60
2018-12-01T09:05:16.276Z,7.70
2018-12-01T09:07:44.681Z,7.90
2018-12-01T09:10:13.127Z,8.00
2018-12-01T09:12:41.980Z,8.30
2018-12-01T09:15:11.347Z,8.40
2018-12-01T09:17:40.270Z,8.60
2018-12-01T09:20:12.947Z,8.60
2018-12-01T09:22:43.870Z,8.60
2018-12-01T09:25:16.396Z,8.50
2018-12-01T09:27:45.408Z,8.60
2018-12-01T09:30:19.126Z,8.60
2018-12-01T09:32:47.653Z,8.60
2018-12-01T09:35:16.035Z,8.60
2018-12-01T09:37:44.435Z,8.60
2018-12-01T09:40:14.130Z,8.60
2018-12-01T09:42:42.605Z,8.70
2018-12-01T09:45:14.245Z,8.70
2018-12-01T09:47:43.755Z,8.70
2018-12-01T09:50:14.171Z,8.70
2018-12-01T09:52:42.846Z,8.80
2018-12-01T09:55:13.426Z,8.80
2018-12-01T09:57:42.796Z,8.90
2018-12-01T10:00:14.483Z,8.90
2018-12-01T10:02:43.505Z,8.90
2018-12-01T10:05:13.268Z,8.90
2018-12-01T10:07:41.677Z,8.90
2018-12-01T10:10:12.535Z,9.00
2018-12-01T10:12:40.932Z,9.00
2018-12-01T10:15:12.673Z,8.90
2018-12-01T10:17:41.070Z,9.00
2018-12-01T10:20:13.188Z,9.00
2018-12-01T10:22:41.776Z,9.00
2018-12-01T10:25:12.514Z,9.10
2018-12-01T10:27:40.938Z,9.20
2018-12-01T10:30:15.543Z,9.40
2018-12-01T10:32:44.264Z,9.50
2018-12-01T10:35:14.140Z,9.60
2018-12-01T10:37:42.583Z,9.60
2018-12-01T10:40:12.695Z,9.70
2018-12-01T10:42:41.131Z,9.70
2018-12-01T10:45:12.806Z,9.90
2018-12-01T10:47:41.542Z,9.90
2018-12-01T10:50:14.001Z,10.00
2018-12-01T10:52:42.472Z,9.90
2018-12-01T10:55:17.514Z,9.90
2018-12-01T10:57:46.182Z,9.90
2018-12-01T11:00:19.935Z,10.00
2018-12-01T11:02:55.710Z,10.10
2018-12-01T11:05:22.354Z,10.00
2018-12-01T11:07:51.374Z,10.00
2018-12-01T11:10:19.755Z,9.90
2018-12-01T11:12:48.471Z,9.90
2018-12-01T11:15:17.074Z,9.80
2018-12-01T11:17:45.515Z,9.80
2018-12-01T11:20:13.925Z,9.80
2018-12-01T11:22:42.583Z,9.70
2018-12-01T11:25:12.008Z,9.80
2018-12-01T11:27:40.468Z,9.70
2018-12-01T11:30:16.252Z,9.80
2018-12-01T11:32:44.826Z,9.80
2018-12-01T11:35:13.260Z,9.80
2018-12-01T11:37:41.748Z,9.80
2018-12-01T11:40:13.486Z,9.70
2018-12-01T11:42:42.472Z,9.70
2018-12-01T11:45:12.102Z,9.70
2018-12-01T11:47:40.571Z,9.70
2018-12-01T11:50:18.661Z,9.70
2018-12-01T11:52:49.228Z,9.70
2018-12-01T11:55:21.699Z,9.70
2018-12-01T11:57:50.645Z,9.70
2018-12-01T12:00:24.389Z,9.70
2018-12-01T12:02:52.992Z,9.60
2018-12-01T12:05:21.547Z,9.60
2018-12-01T12:08:01.140Z,9.60
2018-12-01T12:10:29.723Z,9.60
2018-12-01T12:12:58.265Z,9.60
2018-12-01T12:15:27.332Z,9.60
2018-12-01T12:17:58.379Z,9.60
2018-12-01T12:20:26.829Z,9.60
2018-12-01T12:22:55.279Z,9.60
2018-12-01T12:25:24.012Z,9.60
2018-12-01T12:27:52.449Z,9.60
2018-12-01T12:30:25.839Z,9.60
2018-12-01T12:32:50.663Z,9.50
2018-12-01T12:35:19.094Z,9.50
2018-12-01T12:37:47.506Z,9.60
2018-12-01T12:40:18.169Z,9.50
2018-12-01T12:42:46.771Z,9.50
2018-12-01T12:45:15.683Z,9.40
2018-12-01T12:47:44.284Z,9.40
2018-12-01T12:50:15.626Z,9.50
2018-12-01T12:52:44.918Z,9.40
2018-12-01T12:55:17.378Z,9.40
2018-12-01T12:57:45.731Z,9.40
2018-12-01T13:00:19.246Z,9.40
2018-12-01T13:02:49.918Z,9.40
2018-12-01T13:05:21.696Z,9.40
2018-12-01T13:07:50.075Z,9.30
2018-12-01T13:10:19.512Z,9.30
2018-12-01T13:12:47.924Z,9.20
2018-12-01T13:15:16.918Z,9.20
2018-12-01T13:17:45.888Z,9.10
2018-12-01T13:20:15.612Z,9.20
2018-12-01T13:22:44.324Z,9.10
2018-12-01T13:25:13.934Z,9.10
2018-12-01T13:28:16.987Z,9.00
2018-12-01T13:30:58.675Z,9.00
2018-12-01T13:33:27.219Z,9.00
2018-12-01T13:35:56.567Z,9.00
2018-12-01T13:38:24.977Z,9.10
2018-12-01T13:40:53.402Z,9.10
2018-12-01T13:43:21.824Z,9.00
2018-12-01T13:45:50.227Z,9.10
2018-12-01T13:48:18.685Z,9.10
2018-12-01T13:50:47.099Z,9.00
2018-12-01T13:53:15.642Z,9.00
2018-12-01T13:55:44.067Z,9.10
2018-12-01T13:58:12.690Z,9.10
2018-12-01T14:00:41.382Z,9.00
2018-12-01T14:03:10.198Z,9.00
2018-12-01T14:05:39.630Z,9.00
2018-12-01T14:08:08.011Z,9.00
2018-12-01T14:10:38.374Z,9.00
2018-12-01T14:13:08.444Z,8.90
2018-12-01T14:15:36.856Z,9.00
2018-12-01T14:18:06.129Z,9.00
2018-12-01T14:20:34.555Z,9.00
2018-12-01T14:23:03.293Z,9.10
2018-12-01T14:25:31.705Z,9.00
2018-12-01T14:28:15.827Z,9.00
2018-12-01T14:30:44.204Z,9.00
2018-12-01T14:33:13.143Z,9.10
2018-12-01T14:35:41.720Z,9.10
2018-12-01T14:38:14.628Z,9.00
2018-12-01T14:40:44.148Z,9.00
2018-12-01T14:43:12.654Z,9.00
2018-12-01T14:45:41.976Z,9.00
2018-12-01T14:48:10.361Z,9.00
2018-12-01T14:50:38.725Z,9.00
2018-12-01T14:53:08.416Z,9.00
2018-12-01T14:55:37.074Z,9.00
2018-12-01T14:58:06.288Z,9.10
2018-12-01T15:00:34.979Z,9.00
2018-12-01T15:03:03.455Z,9.00
2018-12-01T15:05:32.061Z,9.00
2018-12-01T15:08:00.463Z,8.90
2018-12-01T15:10:28.862Z,8.90
2018-12-01T15:12:57.241Z,8.90
2018-12-01T15:15:28.301Z,8.80
2018-12-01T15:17:56.766Z,8.90
2018-12-01T15:20:26.129Z,8.90
2018-12-01T15:22:55.988Z,8.80
2018-12-01T15:25:25.553Z,8.80
2018-12-01T15:27:54.041Z,8.80
2018-12-01T15:30:24.244Z,8.90
2018-12-01T15:33:26.067Z,8.90
2018-12-01T15:35:54.503Z,8.90
2018-12-01T15:38:23.448Z,8.90
2018-12-01T15:40:52.130Z,8.90
2018-12-01T15:43:20.874Z,8.90
2018-12-01T15:45:49.494Z,8.90
2018-12-01T15:48:17.933Z,8.80
2018-12-01T15:50:46.327Z,8.90
2018-12-01T15:53:15.613Z,8.90
2018-12-01T15:55:44.037Z,8.90
2018-12-01T15:58:12.966Z,9.00
2018-12-01T16:00:42.657Z,9.00
2018-12-01T16:03:11.069Z,9.00
2018-12-01T16:05:39.952Z,9.10
2018-12-01T16:08:09.439Z,9.10
2018-12-01T16:10:37.829Z,9.10
2018-12-01T16:13:13.924Z,9.10
2018-12-01T16:15:44.016Z,9.10
2018-12-01T16:18:12.595Z,9.10
2018-12-01T16:20:41.313Z,9.20
2018-12-01T16:23:09.918Z,9.20
2018-12-01T16:25:38.664Z,9.30
2018-12-01T16:28:08.223Z,9.30
2018-12-01T16:30:40.543Z,9.30
2018-12-01T16:33:11.701Z,9.40
2018-12-01T16:35:40.439Z,9.40
2018-12-01T16:38:10.661Z,9.40
2018-12-01T16:40:49.533Z,9.40
2018-12-01T16:43:17.990Z,9.50
2018-12-01T16:45:47.805Z,9.50
2018-12-01T16:48:16.205Z,9.60
2018-12-01T16:50:44.621Z,9.50
2018-12-01T16:53:14.398Z,9.50
2018-12-01T16:55:43.025Z,9.60
2018-12-01T16:58:11.583Z,9.60
2018-12-01T17:00:40.204Z,9.60
2018-12-01T17:03:09.725Z,9.60
2018-12-01T17:05:40.328Z,9.70
2018-12-01T17:08:08.773Z,9.70
2018-12-01T17:10:37.488Z,9.70
2018-12-01T17:13:07.362Z,9.70
2018-12-01T17:15:36.003Z,9.70
2018-12-01T17:18:05.059Z,9.70
2018-12-01T17:20:33.708Z,9.70
2018-12-01T17:23:02.329Z,9.70
2018-12-01T17:25:30.817Z,9.80
2018-12-01T17:27:59.622Z,9.80
2018-12-01T17:30:29.716Z,9.80
2018-12-01T17:32:59.590Z,9.80
2018-12-01T17:35:30.111Z,9.80
2018-12-01T17:38:00.051Z,9.80
2018-12-01T17:41:10.845Z,9.80
2018-12-01T17:43:51.610Z,9.90
2018-12-01T17:46:20.135Z,9.90
2018-12-01T17:48:48.598Z,9.90
2018-12-01T17:51:17.229Z,9.90
2018-12-01T17:53:47.839Z,9.90
2018-12-01T17:56:16.226Z,9.90
2018-12-01T17:58:44.681Z,9.90
2018-12-01T18:01:13.169Z,10.00
2018-12-01T18:03:41.884Z,10.00
2018-12-01T18:06:11.879Z,10.00
2018-12-01T18:08:40.542Z,10.00
2018-12-01T18:11:10.036Z,10.00
2018-12-01T18:13:38.450Z,10.00
2018-12-01T18:16:07.345Z,10.10
2018-12-01T18:18:35.742Z,10.10
2018-12-01T18:21:04.264Z,10.10
2018-12-01T18:23:32.924Z,10.10
2018-12-01T18:26:01.315Z,10.10
2018-12-01T18:28:34.965Z,10.10
2018-12-01T18:31:06.668Z,10.20
2018-12-01T18:33:37.164Z,10.20
2018-12-01T18:36:07.123Z,10.20
2018-12-01T18:38:35.815Z,10.20
2018-12-01T18:41:04.270Z,10.20
2018-12-01T18:43:32.686Z,10.30
2018-12-01T18:46:02.461Z,10.20
2018-12-01T18:48:31.182Z,10.30
2018-12-01T18:50:59.571Z,10.30
2018-12-01T18:53:27.955Z,10.40
2018-12-01T18:55:57.225Z,10.30
2018-12-01T18:58:25.617Z,10.40
2018-12-01T19:00:56.353Z,10.40
2018-12-01T19:03:28.200Z,10.40
2018-12-01T19:05:57.207Z,10.40
2018-12-01T19:08:25.598Z,10.40
2018-12-01T19:10:54.335Z,10.40
2018-12-01T19:13:22.930Z,10.50
2018-12-01T19:15:51.334Z,10.50
2018-12-01T19:18:20.331Z,10.50
2018-12-01T19:20:49.033Z,10.50
2018-12-01T19:23:18.302Z,10.50
2018-12-01T19:25:48.108Z,10.50
2018-12-01T19:28:16.668Z,10.60
2018-12-01T19:30:45.052Z,10.60
2018-12-01T19:33:16.152Z,10.60
2018-12-01T19:35:45.427Z,10.60
2018-12-01T19:38:17.775Z,10.60
2018-12-01T19:40:46.429Z,10.50
2018-12-01T19:43:14.817Z,10.60
2018-12-01T19:45:43.586Z,10.60
2018-12-01T19:48:12.289Z,10.60
2018-12-01T19:50:41.370Z,10.50
2018-12-01T19:53:13.312Z,10.60
2018-12-01T19:55:42.284Z,10.60
2018-12-01T19:58:15.640Z,10.60
2018-12-01T20:00:50.536Z,10.60
2018-12-01T20:03:20.432Z,10.60
2018-12-01T20:05:48.963Z,10.60
2018-12-01T20:08:18.530Z,10.60
2018-12-01T20:11:02.533Z,10.60
2018-12-01T20:13:40.267Z,10.60
2018-12-01T20:16:16.852Z,10.60
2018-12-01T20:18:45.597Z,10.60
2018-12-01T20:21:14.064Z,10.60
2018-12-01T20:23:42.491Z,10.70
2018-12-01T20:26:10.929Z,10.70
2018-12-01T20:28:39.322Z,10.70
2018-12-01T20:31:08.085Z,10.70
2018-12-01T20:33:36.451Z,10.70
2018-12-01T20:36:09.904Z,10.70
2018-12-01T20:38:44.677Z,10.70
2018-12-01T20:41:13.673Z,10.70
2018-12-01T20:43:42.076Z,10.70
2018-12-01T20:46:10.483Z,10.70
2018-12-01T20:48:38.889Z,10.70
2018-12-01T20:51:07.292Z,10.70
2018-12-01T20:53:36.193Z,10.70
2018-12-01T20:56:08.242Z,10.70
2018-12-01T20:58:36.987Z,10.70
2018-12-01T21:01:06.012Z,10.80
2018-12-01T21:03:34.411Z,10.70
2018-12-01T21:06:03.013Z,10.80
2018-12-01T21:08:31.941Z,10.70
2018-12-01T21:11:02.488Z,10.80
2018-12-01T21:13:30.875Z,10.80
2018-12-01T21:15:59.275Z,10.80
2018-12-01T21:18:27.675Z,10.80
2018-12-01T21:20:56.398Z,10.80
2018-12-01T21:23:24.781Z,10.80
2018-12-01T21:25:53.413Z,10.80
2018-12-01T21:28:22.379Z,10.80
2018-12-01T21:30:51.350Z,10.80
2018-12-01T21:33:23.770Z,10.70
2018-12-01T21:35:52.148Z,10.80
2018-12-01T21:38:20.545Z,10.70
2018-12-01T21:40:48.961Z,10.70
2018-12-01T21:43:17.386Z,10.80
2018-12-01T21:45:45.788Z,10.80
2018-12-01T21:48:14.822Z,10.80
2018-12-01T21:50:44.256Z,10.70
2018-12-01T21:53:15.689Z,10.80
2018-12-01T21:55:44.126Z,10.80
2018-12-01T21:58:12.518Z,10.80
2018-12-01T22:00:43.463Z,10.80
2018-12-01T22:03:13.420Z,10.80
2018-12-01T22:05:47.423Z,10.80
2018-12-01T22:08:16.529Z,10.80
2018-12-01T22:10:48.138Z,10.90
2018-12-01T22:13:16.538Z,10.90
2018-12-01T22:15:45.012Z,10.90
2018-12-01T22:18:13.623Z,10.90
2018-12-01T22:20:42.020Z,10.90
2018-12-01T22:23:10.721Z,10.90
2018-12-01T22:25:39.098Z,10.90
2018-12-01T22:28:09.298Z,10.90
2018-12-01T22:30:38.368Z,10.90
2018-12-01T22:33:12.626Z,10.90
2018-12-01T22:35:45.436Z,11.00
2018-12-01T22:38:13.809Z,11.00
2018-12-01T22:40:42.915Z,11.00
2018-12-01T22:43:11.903Z,11.00
2018-12-01T22:45:40.291Z,11.00
2018-12-01T22:48:12.018Z,11.00
2018-12-01T22:50:42.441Z,11.00
2018-12-01T22:53:10.916Z,11.00
2018-12-01T22:55:40.572Z,11.00
2018-12-01T22:58:10.491Z,11.00
2018-12-01T23:00:48.350Z,11.00
2018-12-01T23:03:17.059Z,11.00
2018-12-01T23:05:45.495Z,11.00
2018-12-01T23:08:15.326Z,11.00
2018-12-01T23:10:43.799Z,11.00
2018-12-01T23:13:12.181Z,11.00
2018-12-01T23:15:40.575Z,11.00
2018-12-01T23:18:10.579Z,11.10
2018-12-01T23:20:39.838Z,11.00
2018-12-01T23:23:08.725Z,11.10
2018-12-01T23:25:37.419Z,11.10
2018-12-01T23:28:06.967Z,11.10
2018-12-01T23:30:35.681Z,11.10
2018-12-01T23:33:07.881Z,11.10
2018-12-01T23:35:36.265Z,11.10
2018-12-01T23:38:04.814Z,11.10
2018-12-01T23:40:33.203Z,11.10
2018-12-01T23:43:01.605Z,11.10
2018-12-01T23:45:29.995Z,11.10
2018-12-01T23:47:58.391Z,11.10
2018-12-01T23:50:27.304Z,11.10
2018-12-01T23:53:02.294Z,11.10
2018-12-01T23:55:31.139Z,11.10
2018-12-01T23:57:59.544Z,11.10
